sensor_id;sensor_type;location;lat;lon;timestamp;P1;durP1;ratioP1;P2;durP2;ratioP2
36715;SDS011;22699;51.034;3.730;2023-08-24T00:02:38;6.75;;;4.88;;
36715;SDS011;22699;51.034;3.730;2023-08-24T00:05:24;7.35;;;4.93;;
36715;SDS011;22699;51.034;3.730;2023-08-24T00:08:08;9.10;;;5.20;;
36715;SDS011;22699;51.034;3.730;2023-08-24T00:10:42;9.18;;;5.15;;
36715;SDS011;22699;51.034;3.730;2023-08-24T00:13:09;5.57;;;4.60;;
36715;SDS011;22699;51.034;3.730;2023-08-24T00:15:34;7.10;;;5.32;;
36715;SDS011;22699;51.034;3.730;2023-08-24T00:18:08;10.35;;;5.57;;
36715;SDS011;22699;51.034;3.730;2023-08-24T00:20:36;9.90;;;5.10;;
36715;SDS011;22699;51.034;3.730;2023-08-24T00:23:06;10.35;;;5.40;;
36715;SDS011;22699;51.034;3.730;2023-08-24T00:25:32;6.72;;;4.72;;
36715;SDS011;22699;51.034;3.730;2023-08-24T00:28:21;7.65;;;4.82;;
36715;SDS011;22699;51.034;3.730;2023-08-24T00:30:47;6.78;;;5.53;;
36715;SDS011;22699;51.034;3.730;2023-08-24T00:33:14;7.88;;;4.88;;
36715;SDS011;22699;51.034;3.730;2023-08-24T00:35:45;14.40;;;5.70;;
36715;SDS011;22699;51.034;3.730;2023-08-24T00:38:16;9.82;;;5.93;;
36715;SDS011;22699;51.034;3.730;2023-08-24T00:40:48;7.10;;;5.18;;
36715;SDS011;22699;51.034;3.730;2023-08-24T00:43:21;13.48;;;6.20;;
36715;SDS011;22699;51.034;3.730;2023-08-24T00:45:54;9.07;;;5.70;;
36715;SDS011;22699;51.034;3.730;2023-08-24T00:48:30;7.97;;;5.25;;
36715;SDS011;22699;51.034;3.730;2023-08-24T00:51:15;7.97;;;5.13;;
36715;SDS011;22699;51.034;3.730;2023-08-24T00:53:54;6.72;;;5.18;;
36715;SDS011;22699;51.034;3.730;2023-08-24T00:56:22;8.70;;;5.18;;
36715;SDS011;22699;51.034;3.730;2023-08-24T00:59:04;8.10;;;5.30;;
36715;SDS011;22699;51.034;3.730;2023-08-24T01:01:32;9.27;;;5.03;;
36715;SDS011;22699;51.034;3.730;2023-08-24T01:04:11;11.00;;;5.22;;
36715;SDS011;22699;51.034;3.730;2023-08-24T01:06:37;11.10;;;4.90;;
36715;SDS011;22699;51.034;3.730;2023-08-24T01:09:03;9.50;;;4.85;;
36715;SDS011;22699;51.034;3.730;2023-08-24T01:16:44;8.35;;;5.30;;
36715;SDS011;22699;51.034;3.730;2023-08-24T01:19:25;8.88;;;5.78;;
36715;SDS011;22699;51.034;3.730;2023-08-24T01:22:17;7.88;;;4.78;;
36715;SDS011;22699;51.034;3.730;2023-08-24T01:25:06;7.75;;;5.53;;
36715;SDS011;22699;51.034;3.730;2023-08-24T01:27:40;14.43;;;5.28;;
36715;SDS011;22699;51.034;3.730;2023-08-24T01:30:07;10.30;;;5.40;;
36715;SDS011;22699;51.034;3.730;2023-08-24T01:32:33;8.55;;;5.03;;
36715;SDS011;22699;51.034;3.730;2023-08-24T01:35:08;8.73;;;5.32;;
36715;SDS011;22699;51.034;3.730;2023-08-24T01:37:35;10.70;;;6.85;;
36715;SDS011;22699;51.034;3.730;2023-08-24T01:40:06;12.32;;;6.63;;
36715;SDS011;22699;51.034;3.730;2023-08-24T01:45:24;11.57;;;6.60;;
36715;SDS011;22699;51.034;3.730;2023-08-24T01:47:54;10.68;;;6.72;;
36715;SDS011;22699;51.034;3.730;2023-08-24T01:50:21;7.50;;;5.82;;
36715;SDS011;22699;51.034;3.730;2023-08-24T01:52:49;6.75;;;5.57;;
36715;SDS011;22699;51.034;3.730;2023-08-24T01:57:49;7.38;;;5.75;;
36715;SDS011;22699;51.034;3.730;2023-08-24T02:00:15;10.70;;;7.15;;
36715;SDS011;22699;51.034;3.730;2023-08-24T02:02:43;8.13;;;7.30;;
36715;SDS011;22699;51.034;3.730;2023-08-24T02:05:29;11.00;;;6.65;;
36715;SDS011;22699;51.034;3.730;2023-08-24T02:07:55;11.48;;;6.78;;
36715;SDS011;22699;51.034;3.730;2023-08-24T02:11:05;11.20;;;7.00;;
36715;SDS011;22699;51.034;3.730;2023-08-24T02:13:44;9.55;;;7.18;;
36715;SDS011;22699;51.034;3.730;2023-08-24T02:16:10;11.65;;;7.50;;
36715;SDS011;22699;51.034;3.730;2023-08-24T02:18:38;10.32;;;7.53;;
36715;SDS011;22699;51.034;3.730;2023-08-24T02:21:07;12.80;;;6.78;;
36715;SDS011;22699;51.034;3.730;2023-08-24T02:23:39;12.00;;;7.20;;
36715;SDS011;22699;51.034;3.730;2023-08-24T02:26:27;11.85;;;8.00;;
36715;SDS011;22699;51.034;3.730;2023-08-24T02:28:53;13.48;;;8.10;;
36715;SDS011;22699;51.034;3.730;2023-08-24T02:31:27;12.50;;;7.00;;
36715;SDS011;22699;51.034;3.730;2023-08-24T02:33:54;11.75;;;6.82;;
36715;SDS011;22699;51.034;3.730;2023-08-24T02:36:20;12.38;;;7.53;;
36715;SDS011;22699;51.034;3.730;2023-08-24T02:38:47;11.73;;;7.80;;
36715;SDS011;22699;51.034;3.730;2023-08-24T02:41:39;9.70;;;7.63;;
36715;SDS011;22699;51.034;3.730;2023-08-24T02:44:04;13.00;;;7.55;;
36715;SDS011;22699;51.034;3.730;2023-08-24T02:46:39;12.13;;;8.15;;
36715;SDS011;22699;51.034;3.730;2023-08-24T02:49:08;11.43;;;8.98;;
36715;SDS011;22699;51.034;3.730;2023-08-24T02:51:49;14.25;;;8.18;;
36715;SDS011;22699;51.034;3.730;2023-08-24T02:54:25;10.68;;;7.68;;
36715;SDS011;22699;51.034;3.730;2023-08-24T02:57:10;9.95;;;8.60;;
36715;SDS011;22699;51.034;3.730;2023-08-24T02:59:39;12.57;;;8.15;;
36715;SDS011;22699;51.034;3.730;2023-08-24T03:02:04;9.80;;;8.52;;
36715;SDS011;22699;51.034;3.730;2023-08-24T03:04:30;12.23;;;9.23;;
36715;SDS011;22699;51.034;3.730;2023-08-24T03:07:00;11.75;;;8.75;;
36715;SDS011;22699;51.034;3.730;2023-08-24T03:09:27;9.05;;;7.97;;
36715;SDS011;22699;51.034;3.730;2023-08-24T03:11:53;11.50;;;8.95;;
36715;SDS011;22699;51.034;3.730;2023-08-24T03:14:19;9.80;;;8.30;;
36715;SDS011;22699;51.034;3.730;2023-08-24T03:16:46;10.90;;;8.52;;
36715;SDS011;22699;51.034;3.730;2023-08-24T03:19:12;10.93;;;8.25;;
36715;SDS011;22699;51.034;3.730;2023-08-24T03:21:47;11.95;;;9.10;;
36715;SDS011;22699;51.034;3.730;2023-08-24T03:24:14;9.63;;;8.35;;
36715;SDS011;22699;51.034;3.730;2023-08-24T03:26:42;11.80;;;8.50;;
36715;SDS011;22699;51.034;3.730;2023-08-24T03:29:14;12.48;;;9.30;;
36715;SDS011;22699;51.034;3.730;2023-08-24T03:31:40;13.15;;;9.18;;
36715;SDS011;22699;51.034;3.730;2023-08-24T03:34:09;11.95;;;9.25;;
36715;SDS011;22699;51.034;3.730;2023-08-24T03:36:37;12.18;;;9.05;;
36715;SDS011;22699;51.034;3.730;2023-08-24T03:39:16;13.70;;;8.68;;
36715;SDS011;22699;51.034;3.730;2023-08-24T03:41:45;10.80;;;8.63;;
36715;SDS011;22699;51.034;3.730;2023-08-24T03:44:18;11.23;;;8.30;;
36715;SDS011;22699;51.034;3.730;2023-08-24T03:46:43;11.30;;;8.68;;
36715;SDS011;22699;51.034;3.730;2023-08-24T03:49:11;13.98;;;8.85;;
36715;SDS011;22699;51.034;3.730;2023-08-24T03:51:42;9.30;;;7.82;;
36715;SDS011;22699;51.034;3.730;2023-08-24T03:54:23;10.52;;;8.00;;
36715;SDS011;22699;51.034;3.730;2023-08-24T03:56:56;13.98;;;8.85;;
36715;SDS011;22699;51.034;3.730;2023-08-24T03:59:25;12.95;;;8.30;;
36715;SDS011;22699;51.034;3.730;2023-08-24T04:01:57;13.20;;;8.70;;
36715;SDS011;22699;51.034;3.730;2023-08-24T04:04:28;12.43;;;9.27;;
36715;SDS011;22699;51.034;3.730;2023-08-24T04:07:02;15.77;;;9.68;;
36715;SDS011;22699;51.034;3.730;2023-08-24T04:09:42;13.43;;;9.63;;
36715;SDS011;22699;51.034;3.730;2023-08-24T04:12:08;13.00;;;8.73;;
36715;SDS011;22699;51.034;3.730;2023-08-24T04:14:36;10.68;;;9.57;;
36715;SDS011;22699;51.034;3.730;2023-08-24T04:17:03;11.85;;;8.93;;
36715;SDS011;22699;51.034;3.730;2023-08-24T04:19:49;13.02;;;9.80;;
36715;SDS011;22699;51.034;3.730;2023-08-24T04:22:19;10.98;;;9.15;;
36715;SDS011;22699;51.034;3.730;2023-08-24T04:24:48;13.45;;;9.55;;
36715;SDS011;22699;51.034;3.730;2023-08-24T04:27:18;11.13;;;8.60;;
36715;SDS011;22699;51.034;3.730;2023-08-24T04:29:44;11.35;;;8.88;;
36715;SDS011;22699;51.034;3.730;2023-08-24T04:32:12;13.68;;;9.75;;
36715;SDS011;22699;51.034;3.730;2023-08-24T04:34:44;11.13;;;9.70;;
36715;SDS011;22699;51.034;3.730;2023-08-24T04:37:10;10.88;;;8.93;;
36715;SDS011;22699;51.034;3.730;2023-08-24T04:39:35;14.77;;;10.43;;
36715;SDS011;22699;51.034;3.730;2023-08-24T04:42:02;11.00;;;9.70;;
36715;SDS011;22699;51.034;3.730;2023-08-24T04:44:28;14.63;;;10.57;;
36715;SDS011;22699;51.034;3.730;2023-08-24T04:46:53;11.18;;;9.48;;
36715;SDS011;22699;51.034;3.730;2023-08-24T04:49:19;11.82;;;9.30;;
36715;SDS011;22699;51.034;3.730;2023-08-24T04:51:45;12.93;;;9.80;;
36715;SDS011;22699;51.034;3.730;2023-08-24T04:54:10;11.38;;;9.43;;
36715;SDS011;22699;51.034;3.730;2023-08-24T04:56:36;12.05;;;9.63;;
36715;SDS011;22699;51.034;3.730;2023-08-24T04:59:02;10.93;;;9.13;;
36715;SDS011;22699;51.034;3.730;2023-08-24T05:01:28;14.70;;;10.32;;
36715;SDS011;22699;51.034;3.730;2023-08-24T05:03:56;12.73;;;9.50;;
36715;SDS011;22699;51.034;3.730;2023-08-24T05:06:23;12.30;;;9.77;;
36715;SDS011;22699;51.034;3.730;2023-08-24T05:08:49;11.32;;;9.95;;
36715;SDS011;22699;51.034;3.730;2023-08-24T05:11:19;9.93;;;8.75;;
36715;SDS011;22699;51.034;3.730;2023-08-24T05:13:48;11.35;;;10.20;;
36715;SDS011;22699;51.034;3.730;2023-08-24T05:16:14;12.85;;;8.85;;
36715;SDS011;22699;51.034;3.730;2023-08-24T05:18:39;15.25;;;10.48;;
36715;SDS011;22699;51.034;3.730;2023-08-24T05:21:05;12.63;;;10.70;;
36715;SDS011;22699;51.034;3.730;2023-08-24T05:23:32;14.35;;;9.35;;
36715;SDS011;22699;51.034;3.730;2023-08-24T05:25:59;15.40;;;10.45;;
36715;SDS011;22699;51.034;3.730;2023-08-24T05:28:29;14.45;;;9.88;;
36715;SDS011;22699;51.034;3.730;2023-08-24T05:31:05;13.13;;;10.30;;
36715;SDS011;22699;51.034;3.730;2023-08-24T05:33:37;14.02;;;10.38;;
36715;SDS011;22699;51.034;3.730;2023-08-24T05:36:06;13.18;;;11.23;;
36715;SDS011;22699;51.034;3.730;2023-08-24T05:38:32;12.50;;;10.30;;
36715;SDS011;22699;51.034;3.730;2023-08-24T05:40:58;13.48;;;10.00;;
36715;SDS011;22699;51.034;3.730;2023-08-24T05:43:24;15.57;;;9.50;;
36715;SDS011;22699;51.034;3.730;2023-08-24T05:45:51;16.15;;;11.70;;
36715;SDS011;22699;51.034;3.730;2023-08-24T05:48:17;13.95;;;11.27;;
36715;SDS011;22699;51.034;3.730;2023-08-24T05:50:43;16.55;;;11.38;;
36715;SDS011;22699;51.034;3.730;2023-08-24T05:53:11;16.83;;;11.50;;
36715;SDS011;22699;51.034;3.730;2023-08-24T05:55:41;16.98;;;11.77;;
36715;SDS011;22699;51.034;3.730;2023-08-24T05:58:10;13.32;;;10.25;;
36715;SDS011;22699;51.034;3.730;2023-08-24T06:00:36;10.57;;;9.35;;
36715;SDS011;22699;51.034;3.730;2023-08-24T06:03:01;13.07;;;10.70;;
36715;SDS011;22699;51.034;3.730;2023-08-24T06:05:29;14.73;;;10.80;;
36715;SDS011;22699;51.034;3.730;2023-08-24T06:07:57;15.20;;;10.25;;
36715;SDS011;22699;51.034;3.730;2023-08-24T06:10:27;12.35;;;9.35;;
36715;SDS011;22699;51.034;3.730;2023-08-24T06:12:56;14.70;;;10.15;;
36715;SDS011;22699;51.034;3.730;2023-08-24T06:15:22;14.70;;;10.68;;
36715;SDS011;22699;51.034;3.730;2023-08-24T06:17:49;12.85;;;10.93;;
36715;SDS011;22699;51.034;3.730;2023-08-24T06:20:17;13.55;;;10.35;;
36715;SDS011;22699;51.034;3.730;2023-08-24T06:22:43;13.27;;;9.25;;
36715;SDS011;22699;51.034;3.730;2023-08-24T06:25:09;13.23;;;9.40;;
36715;SDS011;22699;51.034;3.730;2023-08-24T06:27:36;10.68;;;9.25;;
36715;SDS011;22699;51.034;3.730;2023-08-24T06:30:02;15.18;;;9.63;;
36715;SDS011;22699;51.034;3.730;2023-08-24T06:32:28;18.40;;;10.05;;
36715;SDS011;22699;51.034;3.730;2023-08-24T06:35:00;22.98;;;11.05;;
36715;SDS011;22699;51.034;3.730;2023-08-24T06:37:43;18.42;;;10.75;;
36715;SDS011;22699;51.034;3.730;2023-08-24T06:40:10;16.27;;;9.93;;
36715;SDS011;22699;51.034;3.730;2023-08-24T06:42:52;12.68;;;8.80;;
36715;SDS011;22699;51.034;3.730;2023-08-24T06:45:18;13.20;;;9.63;;
36715;SDS011;22699;51.034;3.730;2023-08-24T06:47:43;14.07;;;9.95;;
36715;SDS011;22699;51.034;3.730;2023-08-24T06:50:17;11.30;;;8.23;;
36715;SDS011;22699;51.034;3.730;2023-08-24T06:52:50;13.27;;;8.75;;
36715;SDS011;22699;51.034;3.730;2023-08-24T06:55:18;11.63;;;8.45;;
36715;SDS011;22699;51.034;3.730;2023-08-24T06:57:48;13.93;;;8.48;;
36715;SDS011;22699;51.034;3.730;2023-08-24T07:00:23;13.15;;;9.93;;
36715;SDS011;22699;51.034;3.730;2023-08-24T07:03:04;18.17;;;10.15;;
36715;SDS011;22699;51.034;3.730;2023-08-24T07:05:30;11.80;;;8.45;;
36715;SDS011;22699;51.034;3.730;2023-08-24T07:08:05;13.13;;;9.27;;
36715;SDS011;22699;51.034;3.730;2023-08-24T07:10:36;13.90;;;9.27;;
36715;SDS011;22699;51.034;3.730;2023-08-24T07:13:04;14.70;;;10.10;;
36715;SDS011;22699;51.034;3.730;2023-08-24T07:15:34;19.08;;;10.50;;
36715;SDS011;22699;51.034;3.730;2023-08-24T07:18:09;14.20;;;10.20;;
36715;SDS011;22699;51.034;3.730;2023-08-24T07:21:16;13.23;;;10.50;;
36715;SDS011;22699;51.034;3.730;2023-08-24T07:23:42;18.00;;;10.77;;
36715;SDS011;22699;51.034;3.730;2023-08-24T07:26:08;14.38;;;9.80;;
36715;SDS011;22699;51.034;3.730;2023-08-24T07:29:13;9.02;;;7.28;;
36715;SDS011;22699;51.034;3.730;2023-08-24T07:31:39;18.58;;;10.80;;
36715;SDS011;22699;51.034;3.730;2023-08-24T07:34:05;10.43;;;8.20;;
36715;SDS011;22699;51.034;3.730;2023-08-24T07:36:30;12.48;;;9.02;;
36715;SDS011;22699;51.034;3.730;2023-08-24T07:38:56;14.65;;;9.93;;
36715;SDS011;22699;51.034;3.730;2023-08-24T07:41:22;16.48;;;10.15;;
36715;SDS011;22699;51.034;3.730;2023-08-24T07:43:47;11.60;;;8.82;;
36715;SDS011;22699;51.034;3.730;2023-08-24T07:46:13;15.20;;;10.45;;
36715;SDS011;22699;51.034;3.730;2023-08-24T07:48:39;15.80;;;9.95;;
36715;SDS011;22699;51.034;3.730;2023-08-24T07:51:04;12.75;;;9.02;;
36715;SDS011;22699;51.034;3.730;2023-08-24T07:53:30;14.18;;;10.70;;
36715;SDS011;22699;51.034;3.730;2023-08-24T07:55:57;19.30;;;10.25;;
36715;SDS011;22699;51.034;3.730;2023-08-24T07:58:24;15.68;;;9.73;;
36715;SDS011;22699;51.034;3.730;2023-08-24T08:00:51;10.73;;;7.78;;
36715;SDS011;22699;51.034;3.730;2023-08-24T08:03:17;11.63;;;9.82;;
36715;SDS011;22699;51.034;3.730;2023-08-24T08:05:46;11.75;;;9.30;;
36715;SDS011;22699;51.034;3.730;2023-08-24T08:08:14;19.15;;;11.13;;
36715;SDS011;22699;51.034;3.730;2023-08-24T08:10:46;10.90;;;8.85;;
36715;SDS011;22699;51.034;3.730;2023-08-24T08:13:12;9.05;;;7.90;;
36715;SDS011;22699;51.034;3.730;2023-08-24T08:15:37;10.70;;;8.70;;
36715;SDS011;22699;51.034;3.730;2023-08-24T08:18:18;12.65;;;10.00;;
36715;SDS011;22699;51.034;3.730;2023-08-24T08:23:15;12.27;;;8.48;;
36715;SDS011;22699;51.034;3.730;2023-08-24T08:25:41;12.75;;;8.52;;
36715;SDS011;22699;51.034;3.730;2023-08-24T08:28:09;15.65;;;10.38;;
36715;SDS011;22699;51.034;3.730;2023-08-24T08:30:35;12.00;;;8.88;;
36715;SDS011;22699;51.034;3.730;2023-08-24T08:33:13;13.73;;;10.32;;
36715;SDS011;22699;51.034;3.730;2023-08-24T08:35:46;12.68;;;11.38;;
36715;SDS011;22699;51.034;3.730;2023-08-24T08:38:14;16.90;;;11.48;;
36715;SDS011;22699;51.034;3.730;2023-08-24T08:40:40;17.00;;;10.52;;
36715;SDS011;22699;51.034;3.730;2023-08-24T08:43:06;18.38;;;11.68;;
36715;SDS011;22699;51.034;3.730;2023-08-24T08:45:35;17.48;;;11.95;;
36715;SDS011;22699;51.034;3.730;2023-08-24T08:48:20;17.92;;;12.05;;
36715;SDS011;22699;51.034;3.730;2023-08-24T08:50:53;21.92;;;13.13;;
36715;SDS011;22699;51.034;3.730;2023-08-24T08:53:22;22.02;;;12.18;;
36715;SDS011;22699;51.034;3.730;2023-08-24T08:55:52;16.45;;;12.43;;
36715;SDS011;22699;51.034;3.730;2023-08-24T08:58:20;19.50;;;11.25;;
36715;SDS011;22699;51.034;3.730;2023-08-24T09:00:52;19.42;;;12.32;;
36715;SDS011;22699;51.034;3.730;2023-08-24T09:03:26;24.75;;;13.88;;
36715;SDS011;22699;51.034;3.730;2023-08-24T09:06:13;27.90;;;14.50;;
36715;SDS011;22699;51.034;3.730;2023-08-24T09:08:39;23.77;;;13.15;;
36715;SDS011;22699;51.034;3.730;2023-08-24T09:11:12;49.97;;;17.60;;
36715;SDS011;22699;51.034;3.730;2023-08-24T09:13:47;30.05;;;13.88;;
36715;SDS011;22699;51.034;3.730;2023-08-24T09:16:13;22.33;;;11.73;;
36715;SDS011;22699;51.034;3.730;2023-08-24T09:18:42;21.13;;;12.95;;
36715;SDS011;22699;51.034;3.730;2023-08-24T09:21:13;13.32;;;11.55;;
36715;SDS011;22699;51.034;3.730;2023-08-24T09:23:43;13.35;;;11.45;;
36715;SDS011;22699;51.034;3.730;2023-08-24T09:26:11;19.08;;;11.75;;
36715;SDS011;22699;51.034;3.730;2023-08-24T09:28:37;18.60;;;12.02;;
36715;SDS011;22699;51.034;3.730;2023-08-24T09:31:05;13.82;;;11.20;;
36715;SDS011;22699;51.034;3.730;2023-08-24T09:33:32;16.02;;;10.95;;
36715;SDS011;22699;51.034;3.730;2023-08-24T09:35:58;18.73;;;10.38;;
36715;SDS011;22699;51.034;3.730;2023-08-24T09:38:29;16.05;;;11.02;;
36715;SDS011;22699;51.034;3.730;2023-08-24T09:40:57;13.70;;;10.38;;
36715;SDS011;22699;51.034;3.730;2023-08-24T09:43:29;12.93;;;10.18;;
36715;SDS011;22699;51.034;3.730;2023-08-24T09:45:56;14.80;;;9.75;;
36715;SDS011;22699;51.034;3.730;2023-08-24T09:48:22;11.02;;;8.25;;
36715;SDS011;22699;51.034;3.730;2023-08-24T09:50:49;11.13;;;7.25;;
36715;SDS011;22699;51.034;3.730;2023-08-24T09:55:56;11.38;;;7.50;;
36715;SDS011;22699;51.034;3.730;2023-08-24T09:58:34;10.57;;;6.80;;
36715;SDS011;22699;51.034;3.730;2023-08-24T10:01:01;9.13;;;6.80;;
36715;SDS011;22699;51.034;3.730;2023-08-24T10:03:30;7.45;;;6.15;;
36715;SDS011;22699;51.034;3.730;2023-08-24T10:06:01;10.85;;;6.28;;
36715;SDS011;22699;51.034;3.730;2023-08-24T10:08:35;12.63;;;6.22;;
36715;SDS011;22699;51.034;3.730;2023-08-24T10:11:02;8.20;;;6.30;;
36715;SDS011;22699;51.034;3.730;2023-08-24T10:16:08;12.43;;;5.95;;
36715;SDS011;22699;51.034;3.730;2023-08-24T10:18:38;10.30;;;5.57;;
36715;SDS011;22699;51.034;3.730;2023-08-24T10:21:05;9.05;;;5.75;;
36715;SDS011;22699;51.034;3.730;2023-08-24T10:23:32;11.52;;;5.20;;
36715;SDS011;22699;51.034;3.730;2023-08-24T10:26:03;9.75;;;4.85;;
36715;SDS011;22699;51.034;3.730;2023-08-24T10:28:32;7.38;;;4.90;;
36715;SDS011;22699;51.034;3.730;2023-08-24T10:30:59;10.52;;;4.53;;
36715;SDS011;22699;51.034;3.730;2023-08-24T10:33:26;7.07;;;3.90;;
36715;SDS011;22699;51.034;3.730;2023-08-24T10:35:54;6.53;;;3.60;;
36715;SDS011;22699;51.034;3.730;2023-08-24T10:38:23;7.18;;;3.97;;
36715;SDS011;22699;51.034;3.730;2023-08-24T10:40:53;7.53;;;3.20;;
36715;SDS011;22699;51.034;3.730;2023-08-24T10:43:33;7.03;;;3.90;;
36715;SDS011;22699;51.034;3.730;2023-08-24T10:46:02;8.88;;;4.35;;
36715;SDS011;22699;51.034;3.730;2023-08-24T10:48:56;7.32;;;3.92;;
36715;SDS011;22699;51.034;3.730;2023-08-24T10:51:23;9.07;;;3.83;;
36715;SDS011;22699;51.034;3.730;2023-08-24T10:53:58;9.55;;;3.85;;
36715;SDS011;22699;51.034;3.730;2023-08-24T10:59:10;5.80;;;3.55;;
36715;SDS011;22699;51.034;3.730;2023-08-24T11:02:01;10.50;;;4.50;;
36715;SDS011;22699;51.034;3.730;2023-08-24T11:04:26;6.50;;;3.50;;
36715;SDS011;22699;51.034;3.730;2023-08-24T11:06:58;7.88;;;3.60;;
36715;SDS011;22699;51.034;3.730;2023-08-24T11:09:47;5.75;;;3.75;;
36715;SDS011;22699;51.034;3.730;2023-08-24T11:12:13;5.38;;;3.22;;
36715;SDS011;22699;51.034;3.730;2023-08-24T11:14:52;5.10;;;3.38;;
36715;SDS011;22699;51.034;3.730;2023-08-24T11:17:23;7.40;;;3.25;;
36715;SDS011;22699;51.034;3.730;2023-08-24T11:19:54;5.03;;;3.03;;
36715;SDS011;22699;51.034;3.730;2023-08-24T11:22:20;9.20;;;3.83;;
36715;SDS011;22699;51.034;3.730;2023-08-24T11:24:46;4.18;;;2.92;;
36715;SDS011;22699;51.034;3.730;2023-08-24T11:27:12;6.63;;;3.33;;
36715;SDS011;22699;51.034;3.730;2023-08-24T11:29:41;7.40;;;3.78;;
36715;SDS011;22699;51.034;3.730;2023-08-24T11:32:10;4.88;;;2.83;;
36715;SDS011;22699;51.034;3.730;2023-08-24T11:34:36;4.60;;;3.30;;
36715;SDS011;22699;51.034;3.730;2023-08-24T11:37:02;8.77;;;3.20;;
36715;SDS011;22699;51.034;3.730;2023-08-24T11:39:28;7.32;;;2.92;;
36715;SDS011;22699;51.034;3.730;2023-08-24T11:44:44;6.75;;;2.72;;
36715;SDS011;22699;51.034;3.730;2023-08-24T11:47:13;5.72;;;2.63;;
36715;SDS011;22699;51.034;3.730;2023-08-24T11:49:40;6.90;;;2.78;;
36715;SDS011;22699;51.034;3.730;2023-08-24T11:52:06;5.45;;;2.97;;
36715;SDS011;22699;51.034;3.730;2023-08-24T11:54:32;3.28;;;2.53;;
36715;SDS011;22699;51.034;3.730;2023-08-24T11:56:58;8.43;;;2.88;;
36715;SDS011;22699;51.034;3.730;2023-08-24T11:59:23;4.97;;;3.13;;
36715;SDS011;22699;51.034;3.730;2023-08-24T12:01:53;4.97;;;2.88;;
36715;SDS011;22699;51.034;3.730;2023-08-24T12:04:19;5.47;;;3.42;;
36715;SDS011;22699;51.034;3.730;2023-08-24T12:06:45;6.78;;;3.08;;
36715;SDS011;22699;51.034;3.730;2023-08-24T12:09:10;3.58;;;2.55;;
36715;SDS011;22699;51.034;3.730;2023-08-24T12:11:39;6.75;;;2.45;;
36715;SDS011;22699;51.034;3.730;2023-08-24T12:14:05;7.03;;;2.60;;
36715;SDS011;22699;51.034;3.730;2023-08-24T12:16:34;4.57;;;2.60;;
36715;SDS011;22699;51.034;3.730;2023-08-24T12:19:02;4.78;;;2.63;;
36715;SDS011;22699;51.034;3.730;2023-08-24T12:23:58;4.35;;;2.60;;
36715;SDS011;22699;51.034;3.730;2023-08-24T12:26:27;4.80;;;2.60;;
36715;SDS011;22699;51.034;3.730;2023-08-24T12:28:55;3.65;;;2.40;;
36715;SDS011;22699;51.034;3.730;2023-08-24T12:31:29;6.88;;;2.97;;
36715;SDS011;22699;51.034;3.730;2023-08-24T12:34:14;4.47;;;2.83;;
36715;SDS011;22699;51.034;3.730;2023-08-24T12:36:44;4.82;;;2.95;;
36715;SDS011;22699;51.034;3.730;2023-08-24T12:39:10;4.15;;;2.95;;
36715;SDS011;22699;51.034;3.730;2023-08-24T12:41:40;5.15;;;3.03;;
36715;SDS011;22699;51.034;3.730;2023-08-24T12:44:07;6.00;;;3.67;;
36715;SDS011;22699;51.034;3.730;2023-08-24T12:46:36;6.82;;;3.25;;
36715;SDS011;22699;51.034;3.730;2023-08-24T12:49:02;4.20;;;3.13;;
36715;SDS011;22699;51.034;3.730;2023-08-24T12:51:28;6.97;;;3.63;;
36715;SDS011;22699;51.034;3.730;2023-08-24T12:53:53;4.85;;;3.70;;
36715;SDS011;22699;51.034;3.730;2023-08-24T12:56:19;8.07;;;3.75;;
36715;SDS011;22699;51.034;3.730;2023-08-24T12:58:45;12.50;;;4.25;;
36715;SDS011;22699;51.034;3.730;2023-08-24T13:01:13;6.65;;;3.75;;
36715;SDS011;22699;51.034;3.730;2023-08-24T13:03:39;9.35;;;4.07;;
36715;SDS011;22699;51.034;3.730;2023-08-24T13:06:05;5.05;;;3.60;;
36715;SDS011;22699;51.034;3.730;2023-08-24T13:08:32;7.22;;;3.97;;
36715;SDS011;22699;51.034;3.730;2023-08-24T13:10:57;5.47;;;3.72;;
36715;SDS011;22699;51.034;3.730;2023-08-24T13:13:24;6.63;;;3.70;;
36715;SDS011;22699;51.034;3.730;2023-08-24T13:15:50;7.88;;;4.00;;
36715;SDS011;22699;51.034;3.730;2023-08-24T13:18:16;7.38;;;3.97;;
36715;SDS011;22699;51.034;3.730;2023-08-24T13:20:43;5.18;;;3.30;;
36715;SDS011;22699;51.034;3.730;2023-08-24T13:23:09;7.18;;;3.95;;
36715;SDS011;22699;51.034;3.730;2023-08-24T13:25:34;6.57;;;3.83;;
36715;SDS011;22699;51.034;3.730;2023-08-24T13:28:23;6.03;;;3.45;;
36715;SDS011;22699;51.034;3.730;2023-08-24T13:30:48;7.38;;;3.42;;
36715;SDS011;22699;51.034;3.730;2023-08-24T13:33:15;5.28;;;3.20;;
36715;SDS011;22699;51.034;3.730;2023-08-24T13:36:01;3.88;;;2.60;;
36715;SDS011;22699;51.034;3.730;2023-08-24T13:38:30;6.82;;;3.35;;
36715;SDS011;22699;51.034;3.730;2023-08-24T13:40:56;6.78;;;2.97;;
36715;SDS011;22699;51.034;3.730;2023-08-24T13:43:48;5.43;;;3.22;;
36715;SDS011;22699;51.034;3.730;2023-08-24T13:46:37;4.72;;;2.90;;
36715;SDS011;22699;51.034;3.730;2023-08-24T13:49:06;11.10;;;3.05;;
36715;SDS011;22699;51.034;3.730;2023-08-24T13:51:55;5.40;;;2.27;;
36715;SDS011;22699;51.034;3.730;2023-08-24T13:54:21;3.53;;;2.28;;
36715;SDS011;22699;51.034;3.730;2023-08-24T13:56:47;4.90;;;2.35;;
36715;SDS011;22699;51.034;3.730;2023-08-24T13:59:15;4.15;;;2.47;;
36715;SDS011;22699;51.034;3.730;2023-08-24T14:01:42;7.00;;;2.42;;
36715;SDS011;22699;51.034;3.730;2023-08-24T14:04:07;7.28;;;2.75;;
36715;SDS011;22699;51.034;3.730;2023-08-24T14:06:34;4.53;;;2.53;;
36715;SDS011;22699;51.034;3.730;2023-08-24T14:09:01;5.45;;;2.20;;
36715;SDS011;22699;51.034;3.730;2023-08-24T14:11:28;5.00;;;2.42;;
36715;SDS011;22699;51.034;3.730;2023-08-24T14:13:54;5.18;;;2.22;;
36715;SDS011;22699;51.034;3.730;2023-08-24T14:16:20;9.73;;;2.50;;
36715;SDS011;22699;51.034;3.730;2023-08-24T14:18:51;4.10;;;2.42;;
36715;SDS011;22699;51.034;3.730;2023-08-24T14:21:19;5.05;;;2.15;;
36715;SDS011;22699;51.034;3.730;2023-08-24T14:23:49;5.00;;;2.42;;
36715;SDS011;22699;51.034;3.730;2023-08-24T14:26:15;5.18;;;3.08;;
36715;SDS011;22699;51.034;3.730;2023-08-24T14:31:23;4.93;;;1.75;;
36715;SDS011;22699;51.034;3.730;2023-08-24T14:33:50;3.67;;;1.92;;
36715;SDS011;22699;51.034;3.730;2023-08-24T14:36:17;4.32;;;2.63;;
36715;SDS011;22699;51.034;3.730;2023-08-24T14:38:44;7.22;;;2.60;;
36715;SDS011;22699;51.034;3.730;2023-08-24T14:41:10;2.40;;;1.90;;
36715;SDS011;22699;51.034;3.730;2023-08-24T14:43:37;3.58;;;1.98;;
36715;SDS011;22699;51.034;3.730;2023-08-24T14:46:03;4.32;;;2.13;;
36715;SDS011;22699;51.034;3.730;2023-08-24T14:48:30;6.18;;;2.20;;
36715;SDS011;22699;51.034;3.730;2023-08-24T14:50:55;4.75;;;2.42;;
36715;SDS011;22699;51.034;3.730;2023-08-24T14:53:22;6.40;;;2.47;;
36715;SDS011;22699;51.034;3.730;2023-08-24T14:55:55;4.80;;;2.35;;
36715;SDS011;22699;51.034;3.730;2023-08-24T14:58:32;8.00;;;2.38;;
36715;SDS011;22699;51.034;3.730;2023-08-24T15:00:58;6.22;;;2.15;;
36715;SDS011;22699;51.034;3.730;2023-08-24T15:03:24;5.55;;;2.33;;
36715;SDS011;22699;51.034;3.730;2023-08-24T15:06:00;6.30;;;2.40;;
36715;SDS011;22699;51.034;3.730;2023-08-24T15:08:29;7.37;;;2.63;;
36715;SDS011;22699;51.034;3.730;2023-08-24T15:13:24;4.15;;;1.90;;
36715;SDS011;22699;51.034;3.730;2023-08-24T15:15:55;3.05;;;1.98;;
36715;SDS011;22699;51.034;3.730;2023-08-24T15:18:22;5.75;;;1.77;;
36715;SDS011;22699;51.034;3.730;2023-08-24T15:20:47;4.80;;;2.10;;
36715;SDS011;22699;51.034;3.730;2023-08-24T15:23:47;4.47;;;1.92;;
36715;SDS011;22699;51.034;3.730;2023-08-24T15:26:05;3.55;;;1.83;;
36715;SDS011;22699;51.034;3.730;2023-08-24T15:29:06;4.95;;;1.98;;